ADDS TAF Data INFO
IDs: Format: Raw Decoded Include METARs

Data at: 0947 UTC 19 Jan 2018

KPIT 190851Z 23009KT 10SM CLR M05/M12 A3009 RMK AO2 SLP213 T10501122 53004

KPIT 190859Z 1909/2012 23010KT P6SM SKC
  FM191600 22012G22KT P6SM SKC
  FM200000 22010KT P6SM SCT250